createdAt,value
2023-02-08T00:01:24.021Z,10.43
2023-02-08T00:03:52.455Z,10.68
2023-02-08T00:06:20.912Z,10.43
2023-02-08T00:08:49.031Z,9.40
2023-02-08T00:11:18.468Z,9.10
2023-02-08T00:13:46.712Z,10.67
2023-02-08T00:16:15.894Z,9.43
2023-02-08T00:18:43.966Z,9.50
2023-02-08T00:21:13.592Z,11.30
2023-02-08T00:23:42.146Z,9.80
2023-02-08T00:26:11.055Z,9.50
2023-02-08T00:28:41.021Z,8.70
2023-02-08T00:31:09.277Z,9.07
2023-02-08T00:33:37.436Z,10.23
2023-02-08T00:36:07.615Z,10.83
2023-02-08T00:38:36.570Z,11.10
2023-02-08T00:41:05.061Z,10.90
2023-02-08T00:43:33.335Z,10.40
2023-02-08T00:46:02.921Z,9.10
2023-02-08T00:48:31.668Z,9.40
2023-02-08T00:51:02.120Z,11.73
2023-02-08T00:53:30.538Z,10.20
2023-02-08T00:55:58.872Z,11.07
2023-02-08T00:58:27.000Z,11.30
2023-02-08T01:00:55.592Z,10.43
2023-02-08T01:03:25.519Z,10.90
2023-02-08T01:05:53.769Z,10.33
2023-02-08T01:08:22.211Z,10.70
2023-02-08T01:10:50.344Z,10.07
2023-02-08T01:13:18.404Z,11.20
2023-02-08T01:15:46.604Z,11.10
2023-02-08T01:18:14.692Z,11.30
2023-02-08T01:20:44.418Z,10.67
2023-02-08T01:23:12.500Z,11.13
2023-02-08T01:25:41.810Z,10.10
2023-02-08T01:28:10.019Z,11.17
2023-02-08T01:30:39.363Z,10.47
2023-02-08T01:33:09.941Z,9.70
2023-02-08T01:35:38.065Z,10.13
2023-02-08T01:38:07.553Z,11.27
2023-02-08T01:40:35.833Z,10.97
2023-02-08T01:43:03.963Z,10.20
2023-02-08T01:45:33.404Z,12.00
2023-02-08T01:48:08.986Z,10.50
2023-02-08T01:50:46.236Z,11.27
2023-02-08T01:53:15.918Z,10.47
2023-02-08T01:55:48.863Z,9.37
2023-02-08T01:58:19.190Z,10.73
2023-02-08T02:00:48.064Z,10.90
2023-02-08T02:03:16.747Z,10.60
2023-02-08T02:05:48.410Z,9.95
2023-02-08T02:08:18.037Z,9.85
2023-02-08T02:10:48.333Z,10.47
2023-02-08T02:13:19.419Z,9.70
2023-02-08T02:15:50.536Z,9.53
2023-02-08T02:18:24.297Z,10.60
2023-02-08T02:21:22.457Z,10.17
2023-02-08T02:24:17.530Z,10.43
2023-02-08T02:27:10.641Z,8.40
2023-02-08T02:30:22.840Z,9.70
2023-02-08T02:33:13.219Z,9.00
2023-02-08T02:35:46.595Z,11.50
2023-02-08T02:38:23.199Z,10.90
2023-02-08T02:41:01.643Z,8.97
2023-02-08T02:43:46.191Z,10.60
2023-02-08T02:46:24.273Z,9.80
2023-02-08T02:49:01.103Z,10.20
2023-02-08T02:51:34.710Z,10.73
2023-02-08T02:54:08.613Z,10.00
2023-02-08T02:56:40.278Z,10.07
2023-02-08T02:59:11.710Z,10.77
2023-02-08T03:01:40.742Z,10.53
2023-02-08T03:04:18.047Z,10.57
2023-02-08T03:07:06.747Z,10.43
2023-02-08T03:09:55.259Z,10.60
2023-02-08T03:12:35.359Z,11.07
2023-02-08T03:15:11.071Z,11.23
2023-02-08T03:17:55.143Z,9.83
2023-02-08T03:20:27.603Z,10.47
2023-02-08T03:23:03.704Z,10.60
2023-02-08T03:25:41.425Z,9.63
2023-02-08T03:28:19.444Z,9.57
2023-02-08T03:30:54.891Z,9.67
2023-02-08T03:33:27.604Z,8.80
2023-02-08T03:36:02.315Z,10.70
2023-02-08T03:38:34.378Z,10.70
2023-02-08T03:41:07.370Z,11.17
2023-02-08T03:43:39.163Z,10.80
2023-02-08T03:46:12.403Z,11.03
2023-02-08T03:48:44.932Z,9.07
2023-02-08T03:51:16.681Z,11.53
2023-02-08T03:53:47.028Z,10.77
2023-02-08T03:56:20.157Z,10.83
2023-02-08T03:58:53.088Z,10.50
2023-02-08T04:01:26.056Z,10.13
2023-02-08T04:03:56.425Z,11.67
2023-02-08T04:06:25.937Z,11.27
2023-02-08T04:08:53.960Z,11.80
2023-02-08T04:11:22.098Z,10.77
2023-02-08T04:13:50.135Z,10.47
2023-02-08T04:16:18.163Z,11.43
2023-02-08T04:18:46.242Z,10.00
2023-02-08T04:21:14.278Z,15.03
2023-02-08T04:23:43.684Z,14.53
2023-02-08T04:26:11.735Z,12.03
2023-02-08T04:28:39.758Z,12.50
2023-02-08T04:31:08.134Z,11.10
2023-02-08T04:33:36.176Z,11.20
2023-02-08T04:36:04.365Z,12.97
2023-02-08T04:38:32.547Z,10.40
2023-02-08T04:41:01.954Z,9.63
2023-02-08T04:43:30.128Z,12.50
2023-02-08T04:45:58.200Z,11.83
2023-02-08T04:48:26.334Z,12.57
2023-02-08T04:50:57.431Z,12.43
2023-02-08T04:53:26.028Z,11.23
2023-02-08T04:55:54.246Z,11.93
2023-02-08T04:58:23.996Z,10.80
2023-02-08T05:00:52.059Z,11.77
2023-02-08T05:03:20.927Z,13.23
2023-02-08T05:05:56.929Z,11.87
2023-02-08T05:08:25.089Z,10.67
2023-02-08T05:10:53.585Z,13.40
2023-02-08T05:13:23.027Z,13.17
2023-02-08T05:15:51.313Z,11.60
2023-02-08T05:18:19.502Z,12.70
2023-02-08T05:20:54.727Z,10.03
2023-02-08T05:23:22.807Z,13.57
2023-02-08T05:25:50.961Z,14.77
2023-02-08T05:28:19.382Z,11.53
2023-02-08T05:30:49.279Z,9.90
2023-02-08T05:33:17.491Z,12.83
2023-02-08T05:35:46.278Z,13.77
2023-02-08T05:38:14.385Z,12.90
2023-02-08T05:40:42.716Z,12.50
2023-02-08T05:43:11.072Z,13.83
2023-02-08T05:45:39.111Z,14.00
2023-02-08T05:48:08.620Z,12.87
2023-02-08T05:50:36.745Z,13.00
2023-02-08T05:53:05.029Z,14.03
2023-02-08T05:55:34.026Z,14.13
2023-02-08T05:58:02.300Z,12.40
2023-02-08T06:00:30.516Z,11.90
2023-02-08T06:02:59.429Z,13.20
2023-02-08T06:05:28.966Z,13.70
2023-02-08T06:07:57.188Z,12.27
2023-02-08T06:10:25.553Z,13.70
2023-02-08T06:12:53.577Z,12.00
2023-02-08T06:15:21.652Z,13.13
2023-02-08T06:17:49.739Z,14.67
2023-02-08T06:20:18.353Z,13.60
2023-02-08T06:22:47.903Z,14.80
2023-02-08T06:25:15.971Z,12.77
2023-02-08T06:27:44.244Z,13.30
2023-02-08T06:30:13.190Z,15.23
2023-02-08T06:32:41.295Z,13.80
2023-02-08T06:35:09.827Z,13.90
2023-02-08T06:37:38.069Z,15.50
2023-02-08T06:40:09.020Z,13.03
2023-02-08T06:42:37.107Z,14.27
2023-02-08T06:45:08.251Z,13.20
2023-02-08T06:47:36.452Z,14.20
2023-02-08T06:50:04.674Z,13.90
2023-02-08T06:52:32.880Z,13.40
2023-02-08T06:55:00.912Z,15.10
2023-02-08T06:57:30.404Z,13.90
2023-02-08T06:59:58.587Z,13.80
2023-02-08T07:02:27.770Z,13.07
2023-02-08T07:04:55.970Z,14.97
2023-02-08T07:07:24.018Z,11.23
2023-02-08T07:09:52.115Z,14.23
2023-02-08T07:12:20.157Z,14.27
2023-02-08T07:14:49.575Z,13.87
2023-02-08T07:17:17.675Z,13.27
2023-02-08T07:19:45.911Z,14.10
2023-02-08T07:22:13.973Z,13.27
2023-02-08T07:24:43.627Z,14.03
2023-02-08T07:27:13.282Z,14.80
2023-02-08T07:29:41.691Z,12.60
2023-02-08T07:32:11.606Z,14.10
2023-02-08T07:34:40.768Z,12.87
2023-02-08T07:37:09.221Z,13.83
2023-02-08T07:39:37.273Z,13.63
2023-02-08T07:42:06.625Z,13.03
2023-02-08T07:44:41.426Z,12.40
2023-02-08T07:47:11.105Z,14.73
2023-02-08T07:49:39.265Z,14.20
2023-02-08T07:52:07.606Z,12.90
2023-02-08T07:54:36.035Z,10.20
2023-02-08T07:57:04.101Z,14.50
2023-02-08T07:59:32.247Z,14.03
2023-02-08T08:02:00.413Z,13.57
2023-02-08T08:04:29.952Z,13.17
2023-02-08T08:06:58.057Z,12.17
2023-02-08T08:09:26.566Z,16.00
2023-02-08T08:11:54.631Z,14.63
2023-02-08T08:14:22.835Z,10.23
2023-02-08T08:16:50.933Z,13.20
2023-02-08T08:19:18.997Z,13.53
2023-02-08T08:21:48.405Z,10.67
2023-02-08T08:24:16.867Z,15.17
2023-02-08T08:26:45.035Z,14.03
2023-02-08T08:29:13.365Z,11.80
2023-02-08T08:31:42.695Z,16.03
2023-02-08T08:34:11.023Z,12.50
2023-02-08T08:36:39.118Z,12.57
2023-02-08T08:39:08.724Z,14.77
2023-02-08T08:41:37.264Z,12.93
2023-02-08T08:44:05.765Z,14.20
2023-02-08T08:46:33.893Z,14.33
2023-02-08T08:49:02.270Z,12.70
2023-02-08T08:51:32.536Z,14.00
2023-02-08T08:54:00.508Z,15.00
2023-02-08T08:56:30.147Z,15.10
2023-02-08T08:58:58.321Z,13.67
2023-02-08T09:01:27.090Z,14.90
2023-02-08T09:03:55.234Z,13.10
2023-02-08T09:06:23.395Z,13.07
2023-02-08T09:08:51.914Z,13.33
2023-02-08T09:11:20.145Z,15.37
2023-02-08T09:13:52.785Z,15.87
2023-02-08T09:16:21.251Z,14.00
2023-02-08T09:18:49.387Z,14.30
2023-02-08T09:21:19.407Z,14.53
2023-02-08T09:23:48.477Z,9.60
2023-02-08T09:26:19.063Z,12.70
2023-02-08T09:28:49.048Z,12.73
2023-02-08T09:31:21.994Z,13.03
2023-02-08T09:33:50.850Z,12.97
2023-02-08T09:36:19.236Z,15.33
2023-02-08T09:38:47.829Z,15.27
2023-02-08T09:41:29.109Z,10.17
2023-02-08T09:44:11.290Z,11.17
2023-02-08T09:46:42.665Z,15.30
2023-02-08T09:49:17.462Z,15.37
2023-02-08T09:51:51.320Z,11.87
2023-02-08T09:54:24.272Z,15.40
2023-02-08T09:56:53.982Z,15.50
2023-02-08T09:59:26.998Z,14.60
2023-02-08T10:02:00.491Z,15.87
2023-02-08T10:04:38.472Z,12.10
2023-02-08T10:07:06.543Z,17.00
2023-02-08T10:09:34.721Z,16.73
2023-02-08T10:12:15.211Z,10.03
2023-02-08T10:15:03.309Z,14.17
2023-02-08T10:17:50.415Z,13.67
2023-02-08T10:20:30.508Z,15.83
2023-02-08T10:23:08.494Z,13.33
2023-02-08T10:25:51.671Z,15.07
2023-02-08T10:28:35.905Z,16.27
2023-02-08T10:31:16.855Z,15.27
2023-02-08T10:33:50.741Z,17.00
2023-02-08T10:36:21.961Z,14.53
2023-02-08T10:38:52.960Z,15.00
2023-02-08T10:41:25.926Z,9.10
2023-02-08T10:44:03.418Z,13.70
2023-02-08T10:46:39.035Z,15.00
2023-02-08T10:49:13.595Z,14.00
2023-02-08T10:51:42.021Z,16.07
2023-02-08T10:54:13.812Z,13.77
2023-02-08T10:56:46.581Z,15.13
2023-02-08T10:59:18.454Z,13.97
2023-02-08T11:01:49.416Z,15.67
2023-02-08T11:04:18.750Z,17.80
2023-02-08T11:06:49.272Z,18.87
2023-02-08T11:09:26.407Z,14.57
2023-02-08T11:11:55.257Z,14.80
2023-02-08T11:14:37.901Z,14.63
2023-02-08T11:17:27.238Z,16.07
2023-02-08T11:19:55.762Z,16.20
2023-02-08T11:22:27.245Z,16.50
2023-02-08T11:24:57.903Z,16.23
2023-02-08T11:27:34.669Z,16.83
2023-02-08T11:30:23.275Z,16.50
2023-02-08T11:33:22.760Z,18.07
2023-02-08T11:36:14.259Z,18.23
2023-02-08T11:38:44.131Z,16.40
2023-02-08T11:41:18.993Z,12.17
2023-02-08T11:44:02.505Z,16.60
2023-02-08T11:46:33.696Z,17.20
2023-02-08T11:49:06.943Z,18.17
2023-02-08T11:51:38.351Z,16.13
2023-02-08T11:54:08.036Z,16.23
2023-02-08T11:56:36.831Z,16.20
2023-02-08T11:59:18.050Z,14.33
2023-02-08T12:01:47.039Z,18.17
2023-02-08T12:04:18.666Z,14.67
2023-02-08T12:07:20.416Z,19.90
2023-02-08T12:10:08.421Z,16.30
2023-02-08T12:12:50.118Z,16.40
2023-02-08T12:15:28.727Z,16.20
2023-02-08T12:18:16.545Z,13.27
2023-02-08T12:20:48.044Z,16.20
2023-02-08T12:23:32.472Z,16.30
2023-02-08T12:26:12.522Z,16.70
2023-02-08T12:28:54.688Z,15.53
2023-02-08T12:31:31.419Z,15.07
2023-02-08T12:34:07.548Z,17.07
2023-02-08T12:37:24.844Z,17.93
2023-02-08T12:40:16.817Z,15.57
2023-02-08T12:42:57.483Z,16.20
2023-02-08T12:45:48.917Z,14.33
2023-02-08T12:48:41.316Z,15.90
2023-02-08T12:51:18.370Z,13.67
2023-02-08T12:53:52.949Z,14.60
2023-02-08T12:56:26.288Z,16.47
2023-02-08T12:59:08.249Z,13.93
2023-02-08T13:01:46.001Z,15.57
2023-02-08T13:04:18.094Z,14.43
2023-02-08T13:06:50.464Z,15.40
2023-02-08T13:09:31.414Z,13.10
2023-02-08T13:12:05.605Z,14.97
2023-02-08T13:14:37.166Z,14.80
2023-02-08T13:17:14.554Z,11.93
2023-02-08T13:20:00.210Z,14.33
2023-02-08T13:22:34.133Z,15.47
2023-02-08T13:25:07.827Z,16.50
2023-02-08T13:27:36.786Z,15.00
2023-02-08T13:30:06.450Z,16.00
2023-02-08T13:32:43.816Z,15.77
2023-02-08T13:35:17.354Z,14.80
2023-02-08T13:37:58.232Z,14.00
2023-02-08T13:40:31.143Z,11.87
2023-02-08T13:43:02.364Z,16.50
2023-02-08T13:45:34.450Z,15.50
2023-02-08T13:48:07.264Z,7.83
2023-02-08T13:50:42.168Z,15.70
2023-02-08T13:53:11.156Z,14.03
2023-02-08T13:56:09.651Z,13.73
2023-02-08T13:58:58.613Z,13.03
2023-02-08T14:01:28.804Z,14.67
2023-02-08T14:04:28.764Z,13.83
2023-02-08T14:07:02.052Z,11.80
2023-02-08T14:09:42.783Z,12.10
2023-02-08T14:12:20.798Z,11.37
2023-02-08T14:15:21.651Z,13.27
2023-02-08T14:17:51.576Z,12.60
2023-02-08T14:20:23.215Z,12.40
2023-02-08T14:22:54.437Z,12.07
2023-02-08T14:25:25.810Z,11.47
2023-02-08T14:27:57.320Z,10.93
2023-02-08T14:30:28.750Z,13.17
2023-02-08T14:33:16.349Z,11.53
2023-02-08T14:35:55.241Z,11.60
2023-02-08T14:38:57.586Z,11.90
2023-02-08T14:41:50.166Z,9.73
2023-02-08T14:44:56.729Z,11.67
2023-02-08T14:48:05.342Z,11.60
2023-02-08T14:50:51.560Z,10.77
2023-02-08T14:53:30.401Z,11.70
2023-02-08T14:56:03.984Z,13.30
2023-02-08T14:58:35.624Z,12.77
2023-02-08T15:01:13.263Z,12.57
2023-02-08T15:03:43.196Z,13.10
2023-02-08T15:07:05.648Z,11.60
2023-02-08T15:09:38.447Z,10.37
2023-02-08T15:12:14.904Z,11.60
2023-02-08T15:14:44.377Z,12.10
2023-02-08T15:17:35.988Z,11.73
2023-02-08T15:20:07.329Z,11.70
2023-02-08T15:22:37.409Z,12.00
2023-02-08T15:25:22.705Z,11.27
2023-02-08T15:27:52.746Z,12.10
2023-02-08T15:30:35.141Z,12.20
2023-02-08T15:33:10.322Z,12.17
2023-02-08T15:35:38.608Z,12.00
2023-02-08T15:38:15.307Z,11.73
2023-02-08T15:40:43.670Z,12.50
2023-02-08T15:43:14.323Z,11.40
2023-02-08T15:45:42.507Z,13.00
2023-02-08T15:48:13.577Z,11.97
2023-02-08T15:50:41.999Z,12.57
2023-02-08T15:53:16.687Z,12.17
2023-02-08T15:55:50.200Z,11.80
2023-02-08T15:58:28.629Z,12.40
2023-02-08T16:00:59.169Z,12.40
2023-02-08T16:03:30.544Z,12.27
2023-02-08T16:06:01.606Z,11.00
2023-02-08T16:08:32.529Z,11.90
2023-02-08T16:11:03.048Z,13.07
2023-02-08T16:13:34.906Z,12.80
2023-02-08T16:16:17.636Z,12.17
2023-02-08T16:18:50.235Z,12.53
2023-02-08T16:21:29.045Z,11.90
2023-02-08T16:23:59.020Z,11.90
2023-02-08T16:26:28.967Z,12.33
2023-02-08T16:28:59.718Z,10.93
2023-02-08T16:31:30.723Z,11.67
2023-02-08T16:34:03.894Z,12.17
2023-02-08T16:36:37.041Z,12.07
2023-02-08T16:39:46.932Z,12.40
2023-02-08T16:42:29.325Z,10.80
2023-02-08T16:45:17.092Z,12.20
2023-02-08T16:47:47.882Z,12.63
2023-02-08T16:50:19.515Z,11.17
2023-02-08T16:52:50.667Z,11.63
2023-02-08T16:55:21.971Z,12.10
2023-02-08T16:57:51.891Z,11.50
2023-02-08T17:00:26.061Z,11.63
2023-02-08T17:02:54.817Z,12.10
2023-02-08T17:05:27.424Z,12.90
2023-02-08T17:07:55.662Z,11.67
2023-02-08T17:10:28.755Z,12.07
2023-02-08T17:13:13.504Z,10.17
2023-02-08T17:15:47.147Z,10.37
2023-02-08T17:18:15.427Z,11.70
2023-02-08T17:20:45.274Z,11.50
2023-02-08T17:23:15.456Z,12.40
2023-02-08T17:25:44.374Z,11.57
2023-02-08T17:28:17.514Z,12.67
2023-02-08T17:30:47.213Z,11.27
2023-02-08T17:33:18.647Z,13.67
2023-02-08T17:35:50.027Z,12.47
2023-02-08T17:38:19.245Z,11.70
2023-02-08T17:40:47.796Z,9.43
2023-02-08T17:43:16.365Z,12.63
2023-02-08T17:45:45.351Z,11.80
2023-02-08T17:48:15.362Z,11.97
2023-02-08T17:50:47.802Z,12.13
2023-02-08T17:53:17.697Z,12.10
2023-02-08T17:55:46.703Z,11.47
2023-02-08T17:58:15.338Z,11.80
2023-02-08T18:00:43.643Z,11.23
2023-02-08T18:03:12.334Z,10.70
2023-02-08T18:05:40.526Z,12.70
2023-02-08T18:08:08.700Z,12.63
2023-02-08T18:10:38.221Z,12.07
2023-02-08T18:13:06.369Z,11.40
2023-02-08T18:15:35.720Z,12.40
2023-02-08T18:18:04.041Z,10.90
2023-02-08T18:20:32.201Z,11.07
2023-02-08T18:23:00.404Z,9.63
2023-02-08T18:25:28.867Z,11.30
2023-02-08T18:27:58.933Z,10.70
2023-02-08T18:30:28.015Z,10.80
2023-02-08T18:32:56.162Z,10.37
2023-02-08T18:35:24.229Z,10.67
2023-02-08T18:37:53.512Z,11.73
2023-02-08T18:40:21.813Z,11.27
2023-02-08T18:42:49.852Z,9.90
2023-02-08T18:45:19.446Z,10.00
2023-02-08T18:47:47.977Z,11.67
2023-02-08T18:50:16.391Z,9.17
2023-02-08T18:52:44.491Z,9.10
2023-02-08T18:55:13.016Z,10.57
2023-02-08T18:57:41.291Z,9.57
2023-02-08T19:00:10.932Z,9.87
2023-02-08T19:02:40.686Z,9.97
2023-02-08T19:05:08.967Z,9.07
2023-02-08T19:07:38.747Z,9.13
2023-02-08T19:10:07.638Z,8.97
2023-02-08T19:12:38.322Z,7.97
2023-02-08T19:15:07.110Z,9.53
2023-02-08T19:17:35.527Z,9.50
2023-02-08T19:20:05.736Z,8.70
2023-02-08T19:22:33.980Z,8.70
2023-02-08T19:25:02.244Z,9.37
2023-02-08T19:27:30.715Z,9.47
2023-02-08T19:29:58.803Z,9.27
2023-02-08T19:32:27.019Z,8.27
2023-02-08T19:34:55.144Z,8.77
2023-02-08T19:37:24.515Z,10.40
2023-02-08T19:39:52.772Z,13.00
2023-02-08T19:42:20.852Z,12.43
2023-02-08T19:44:49.055Z,11.10
2023-02-08T19:47:17.126Z,10.77
2023-02-08T19:49:45.237Z,12.17
2023-02-08T19:52:16.218Z,12.30
2023-02-08T19:54:45.635Z,11.33
2023-02-08T19:57:15.942Z,8.73
2023-02-08T19:59:44.613Z,9.57
2023-02-08T20:02:13.207Z,11.43
2023-02-08T20:04:41.806Z,10.00
2023-02-08T20:07:10.327Z,10.87
2023-02-08T20:09:38.573Z,10.87
2023-02-08T20:12:08.433Z,9.60
2023-02-08T20:14:36.620Z,10.50
2023-02-08T20:17:04.957Z,9.77
2023-02-08T20:19:36.137Z,9.90
2023-02-08T20:22:04.375Z,9.90
2023-02-08T20:24:32.544Z,8.50
2023-02-08T20:27:00.726Z,9.30
2023-02-08T20:29:30.724Z,9.27
2023-02-08T20:31:59.554Z,8.77
2023-02-08T20:34:27.682Z,10.83
2023-02-08T20:37:06.803Z,12.63
2023-02-08T20:39:36.694Z,11.20
2023-02-08T20:42:05.301Z,12.43
2023-02-08T20:44:35.480Z,9.47
2023-02-08T20:47:04.107Z,9.10
2023-02-08T20:49:32.620Z,10.00
2023-02-08T20:52:01.177Z,8.97
2023-02-08T20:54:29.545Z,9.20
2023-02-08T20:56:57.914Z,8.93
2023-02-08T20:59:30.273Z,8.80
2023-02-08T21:01:59.989Z,9.60
2023-02-08T21:04:28.188Z,9.37
2023-02-08T21:06:56.369Z,10.07
2023-02-08T21:09:24.798Z,10.20
2023-02-08T21:11:53.313Z,9.90
2023-02-08T21:14:23.497Z,8.87
2023-02-08T21:16:53.780Z,8.60
2023-02-08T21:19:24.183Z,8.30
2023-02-08T21:21:54.050Z,9.20
2023-02-08T21:24:24.007Z,8.53
2023-02-08T21:26:52.168Z,9.73
2023-02-08T21:29:20.608Z,10.20
2023-02-08T21:31:51.714Z,9.83
2023-02-08T21:34:20.670Z,9.27
2023-02-08T21:36:50.640Z,8.73
2023-02-08T21:39:18.741Z,9.40
2023-02-08T21:41:48.218Z,9.93
2023-02-08T21:44:16.644Z,8.80
2023-02-08T21:46:44.779Z,8.33
2023-02-08T21:49:30.641Z,8.63
2023-02-08T21:52:17.593Z,7.00
2023-02-08T21:54:46.084Z,8.30
2023-02-08T21:57:19.628Z,8.20
2023-02-08T21:59:48.639Z,8.87
2023-02-08T22:02:23.351Z,8.73
2023-02-08T22:04:52.584Z,8.20
2023-02-08T22:07:22.243Z,8.10
2023-02-08T22:09:50.437Z,8.10
2023-02-08T22:12:21.685Z,7.83
2023-02-08T22:14:50.976Z,8.53
2023-02-08T22:17:19.678Z,8.07
2023-02-08T22:19:47.918Z,6.80
2023-02-08T22:22:16.076Z,6.90
2023-02-08T22:24:45.555Z,7.30
2023-02-08T22:27:13.796Z,8.80
2023-02-08T22:29:41.890Z,8.33
2023-02-08T22:32:11.068Z,8.60
2023-02-08T22:34:39.869Z,8.73
2023-02-08T22:37:08.301Z,7.80
2023-02-08T22:39:36.598Z,7.63
2023-02-08T22:42:11.936Z,7.93
2023-02-08T22:44:42.126Z,7.03
2023-02-08T22:47:12.007Z,6.87
2023-02-08T22:49:40.449Z,7.10
2023-02-08T22:52:09.547Z,6.60
2023-02-08T22:54:37.822Z,6.13
2023-02-08T22:57:09.579Z,7.50
2023-02-08T22:59:38.718Z,6.40
2023-02-08T23:02:07.312Z,6.00
2023-02-08T23:04:36.943Z,6.10
2023-02-08T23:07:05.396Z,6.30
2023-02-08T23:09:33.409Z,6.40
2023-02-08T23:12:01.567Z,6.30
2023-02-08T23:14:31.057Z,6.50
2023-02-08T23:16:59.129Z,6.13
2023-02-08T23:19:27.505Z,6.17
2023-02-08T23:21:59.180Z,6.83
2023-02-08T23:24:27.701Z,5.20
2023-02-08T23:26:55.778Z,6.47
2023-02-08T23:29:23.921Z,5.57
2023-02-08T23:31:53.612Z,6.00
2023-02-08T23:34:21.846Z,5.70
2023-02-08T23:36:50.031Z,6.30
2023-02-08T23:39:18.168Z,5.70
2023-02-08T23:41:46.360Z,6.50
2023-02-08T23:44:14.446Z,5.07
2023-02-08T23:46:42.571Z,6.23
2023-02-08T23:49:12.138Z,6.27
2023-02-08T23:51:40.228Z,6.03
2023-02-08T23:54:08.692Z,5.97
2023-02-08T23:56:36.858Z,5.40
2023-02-08T23:59:08.110Z,5.80
